Terminal Aerodrome Forecast
Issued by NWS Albany, NY

Home | Current Version | Previous Version | Text Only | Print | Product List | Glossary On
Versions: 1 2 3 4 5 6 7 8 9 10 11 12 13 14 15 16 17 18 19 20 21 22 23 24 25 26 27
000
FTUS41 KALY 012324
TAFALB
TAF
KALB 012324Z 0200/0224 05007KT 6SM BR VCSH SCT010 OVC020
      TEMPO 0200/0204 3SM -DZ BR OVC010
     FM020400 VRB05KT 3SM -DZ BR BKN009 OVC020
     FM021300 36005KT 4SM BR SCT009 OVC012
     FM021600 35005KT P6SM BKN015=

USA.gov is the U.S. government's official web portal to all federal, state and local government web resources and services.